PWSweather.com
Personal Weather Stations
Station Observations

ChardChardGB

Lat: 50.877408, Lon: -2.94964741

Elevation: 341

Station Type: WS3083

http://www.merriott-astro.co.uk/weather/index.htm

High Low Average
Temperature 44.1°F6.7°C 39.9°F4.4°C 41.7°F5.4°C
Dew Point 38.0°F3.3°C 34.3°F1.3°C 36.4°F2.4°C
Winds 7.8 mph 12.6 kmh Calm Calm 2.0 mph S3.2 kmh S
Wind Gusts 12.1 mph19.5 kmh -- 4.0 mph6.4 kmh
Humidity 83% 79% 81%
Pressure 28.55 in966.8 mb 28.42 in962.4 mb -
Precipitation 0.02 in0.5 mm - -
Hour Temp Dew Point Humidity Winds Wind Gusts Pressure Precip Precip Rate Daily Precip Total
12:00 AM 44.1°F6.7°C 38.0°F3.3°C 79% 7.8 mph NW12.6 kmh NW 11.4 mph18.3 kmh 28.45 in963.4 mb 0.01 in0.3 mm 0.00 in0.0 mm 0.01 in0.3 mm
12:10 AM 43.7°F6.5°C 37.9°F3.3°C 80% 4.3 mph NW6.9 kmh NW 6.0 mph9.7 kmh 28.45 in963.4 mb 0.02 in0.5 mm 0.06 in1.5 mm 0.01 in0.3 mm
12:20 AM 43.2°F6.2°C 37.4°F3.0°C 80% 7.2 mph NW11.6 kmh NW 12.1 mph19.5 kmh 28.45 in963.4 mb 0.02 in0.5 mm 0.00 in0.0 mm 0.01 in0.3 mm
12:30 AM 42.8°F6.0°C 37.1°F2.8°C 80% 3.7 mph NW6.0 kmh NW 5.4 mph8.7 kmh 28.44 in963.1 mb 0.02 in0.5 mm 0.00 in0.0 mm 0.01 in0.3 mm
12:40 AM 42.6°F5.9°C 36.9°F2.7°C 80% 2.5 mph NW4.0 kmh NW 3.1 mph5.0 kmh 28.44 in963.1 mb 0.02 in0.5 mm 0.00 in0.0 mm 0.02 in0.5 mm
01:00 AM 42.3°F5.7°C 36.9°F2.7°C 81% Calm Calm -- 28.43 in962.8 mb 0.02 in0.5 mm 0.00 in0.0 mm 0.02 in0.5 mm
01:01 AM 42.3°F5.7°C 36.8°F2.7°C 81% Calm Calm -- 28.43 in962.8 mb 0.02 in0.5 mm 0.00 in0.0 mm 0.02 in0.5 mm
01:10 AM 42.1°F5.6°C 36.7°F2.6°C 81% 0.5 mph NW0.8 kmh NW 3.8 mph6.1 kmh 28.42 in962.4 mb 0.01 in0.3 mm 0.00 in0.0 mm 0.02 in0.5 mm
01:20 AM 41.7°F5.4°C 36.6°F2.6°C 82% 3.7 mph NNW6.0 kmh NNW 6.0 mph9.7 kmh 28.42 in962.4 mb 0.01 in0.3 mm 0.00 in0.0 mm 0.02 in0.5 mm
01:30 AM 41.7°F5.4°C 36.6°F2.6°C 82% 4.8 mph NNW7.7 kmh NNW 6.9 mph11.1 kmh 28.43 in962.8 mb 0.01 in0.3 mm 0.00 in0.0 mm 0.02 in0.5 mm
01:40 AM 41.5°F5.3°C 36.5°F2.5°C 82% 3.7 mph NW6.0 kmh NW 5.4 mph8.7 kmh 28.43 in962.8 mb 0.00 in0.0 mm 0.00 in0.0 mm 0.02 in0.5 mm
01:50 AM 41.5°F5.3°C 36.8°F2.7°C 83% 1.6 mph NW2.6 kmh NW 4.5 mph7.2 kmh 28.43 in962.8 mb 0.00 in0.0 mm 0.00 in0.0 mm 0.02 in0.5 mm
02:00 AM 41.5°F5.3°C 36.8°F2.7°C 83% Calm Calm -- 28.45 in963.4 mb 0.00 in0.0 mm 0.00 in0.0 mm 0.02 in0.5 mm
02:10 AM 41.7°F5.4°C 36.9°F2.7°C 83% Calm Calm -- 28.45 in963.4 mb 0.00 in0.0 mm 0.00 in0.0 mm 0.02 in0.5 mm
02:20 AM 41.7°F5.4°C 36.9°F2.7°C 83% Calm Calm -- 28.45 in963.4 mb 0.00 in0.0 mm 0.00 in0.0 mm 0.02 in0.5 mm
02:30 AM 41.7°F5.4°C 36.6°F2.6°C 82% Calm Calm -- 28.45 in963.4 mb 0.00 in0.0 mm 0.00 in0.0 mm 0.02 in0.5 mm
02:40 AM 41.5°F5.3°C 36.5°F2.5°C 82% Calm Calm -- 28.45 in963.4 mb 0.00 in0.0 mm 0.00 in0.0 mm 0.02 in0.5 mm
02:50 AM 41.5°F5.3°C 36.5°F2.5°C 82% Calm Calm -- 28.46 in963.8 mb 0.00 in0.0 mm 0.00 in0.0 mm 0.02 in0.5 mm
03:00 AM 41.7°F5.4°C 36.6°F2.6°C 82% Calm Calm -- 28.46 in963.8 mb 0.00 in0.0 mm 0.00 in0.0 mm 0.02 in0.5 mm
03:10 AM 41.7°F5.4°C 36.6°F2.6°C 82% 0.7 mph NW1.1 kmh NW 4.5 mph7.2 kmh 28.47 in964.1 mb 0.00 in0.0 mm 0.00 in0.0 mm 0.02 in0.5 mm
03:20 AM 41.7°F5.4°C 36.6°F2.6°C 82% 5.0 mph NW8.0 kmh NW 6.9 mph11.1 kmh 28.46 in963.8 mb 0.00 in0.0 mm 0.00 in0.0 mm 0.02 in0.5 mm
03:30 AM 41.7°F5.4°C 36.6°F2.6°C 82% 3.4 mph NW5.5 kmh NW 6.9 mph11.1 kmh 28.47 in964.1 mb 0.00 in0.0 mm 0.00 in0.0 mm 0.02 in0.5 mm
03:40 AM 41.7°F5.4°C 36.6°F2.6°C 82% 3.6 mph NW5.8 kmh NW 6.9 mph11.1 kmh 28.48 in964.4 mb 0.00 in0.0 mm 0.00 in0.0 mm 0.02 in0.5 mm
03:50 AM 41.9°F5.5°C 36.5°F2.5°C 81% 4.8 mph NW7.7 kmh NW 6.9 mph11.1 kmh 28.48 in964.4 mb 0.00 in0.0 mm 0.00 in0.0 mm 0.02 in0.5 mm
04:00 AM 41.7°F5.4°C 36.3°F2.4°C 81% 4.4 mph NW7.1 kmh NW 6.9 mph11.1 kmh 28.48 in964.4 mb 0.00 in0.0 mm 0.00 in0.0 mm 0.02 in0.5 mm
04:10 AM 41.7°F5.4°C 36.3°F2.4°C 81% 1.1 mph NW1.8 kmh NW 5.4 mph8.7 kmh 28.49 in964.8 mb 0.00 in0.0 mm 0.00 in0.0 mm 0.02 in0.5 mm
04:20 AM 41.4°F5.2°C 35.7°F2.1°C 80% Calm Calm -- 28.50 in965.1 mb 0.00 in0.0 mm 0.00 in0.0 mm 0.02 in0.5 mm
04:30 AM 41.2°F5.1°C 35.5°F1.9°C 80% 1.0 mph NW1.6 kmh NW 6.0 mph9.7 kmh 28.51 in965.5 mb 0.00 in0.0 mm 0.00 in0.0 mm 0.02 in0.5 mm
04:40 AM 41.5°F5.3°C 36.2°F2.3°C 81% 2.0 mph NW3.2 kmh NW 6.9 mph11.1 kmh 28.50 in965.1 mb 0.00 in0.0 mm 0.00 in0.0 mm 0.02 in0.5 mm
04:50 AM 41.5°F5.3°C 35.8°F2.1°C 80% 0.4 mph NNW0.6 kmh NNW 4.5 mph7.2 kmh 28.52 in965.8 mb 0.00 in0.0 mm 0.00 in0.0 mm 0.02 in0.5 mm
05:00 AM 41.0°F5.0°C 35.3°F1.8°C 80% Calm Calm -- 28.52 in965.8 mb 0.00 in0.0 mm 0.00 in0.0 mm 0.02 in0.5 mm
05:10 AM 40.6°F4.8°C 35.0°F1.7°C 80% Calm Calm -- 28.53 in966.1 mb 0.00 in0.0 mm 0.00 in0.0 mm 0.02 in0.5 mm
05:20 AM 40.1°F4.5°C 34.4°F1.3°C 80% Calm Calm -- 28.54 in966.5 mb 0.00 in0.0 mm 0.00 in0.0 mm 0.02 in0.5 mm
05:30 AM 39.9°F4.4°C 34.3°F1.3°C 80% Calm Calm -- 28.54 in966.5 mb 0.00 in0.0 mm 0.00 in0.0 mm 0.02 in0.5 mm
05:40 AM 39.9°F4.4°C 34.6°F1.4°C 81% Calm Calm -- 28.55 in966.8 mb 0.00 in0.0 mm 0.00 in0.0 mm 0.02 in0.5 mm
06:04 AM 44.1°F6.7°C 31.1°F-0.5°C 60% Calm Calm -- 30.26 in1024.7 mb 0.00 in0.0 mm 0.00 in0.0 mm 0.02 in0.5 mm
06:34 AM 45.0°F7.2°C 30.2°F-1.0°C 56% Calm Calm -- 30.26 in1024.7 mb 0.00 in0.0 mm 0.00 in0.0 mm 0.02 in0.5 mm
07:04 AM 44.8°F7.1°C 30.9°F-0.6°C 58% Calm Calm -- 30.26 in1024.7 mb 0.00 in0.0 mm 0.00 in0.0 mm 0.02 in0.5 mm
07:34 AM 42.4°F5.8°C 29.5°F-1.4°C 60% Calm Calm -- 30.27 in1025.1 mb 0.00 in0.0 mm 0.00 in0.0 mm 0.02 in0.5 mm
08:04 AM 41.0°F5.0°C 29.7°F-1.3°C 64% Calm Calm -- 30.26 in1024.7 mb 0.00 in0.0 mm 0.00 in0.0 mm 0.02 in0.5 mm
08:34 AM 40.1°F4.5°C 29.3°F-1.5°C 65% Calm Calm -- 30.26 in1024.7 mb 0.00 in0.0 mm 0.00 in0.0 mm 0.02 in0.5 mm
09:04 AM 39.7°F4.3°C 30.4°F-0.9°C 69% Calm Calm -- 30.26 in1024.7 mb 0.00 in0.0 mm 0.00 in0.0 mm 0.02 in0.5 mm
09:34 AM 40.5°F4.7°C 31.4°F-0.3°C 70% Calm Calm -- 30.26 in1024.7 mb 0.00 in0.0 mm 0.00 in0.0 mm 0.02 in0.5 mm
10:04 AM 39.9°F4.4°C 31.3°F-0.4°C 71% Calm Calm -- 30.25 in1024.4 mb 0.00 in0.0 mm 0.00 in0.0 mm 0.02 in0.5 mm
10:34 AM 39.4°F4.1°C 31.1°F-0.5°C 72% Calm Calm -- 30.24 in1024.0 mb 0.00 in0.0 mm 0.00 in0.0 mm 0.02 in0.5 mm
11:04 AM 39.7°F4.3°C 31.8°F-0.1°C 73% Calm Calm -- 30.23 in1023.7 mb 0.00 in0.0 mm 0.00 in0.0 mm 0.02 in0.5 mm
11:34 AM 39.2°F4.0°C 31.6°F-0.2°C 74% Calm Calm -- 30.22 in1023.4 mb 0.00 in0.0 mm 0.00 in0.0 mm 0.02 in0.5 mm
12:04 PM 38.7°F3.7°C 32.1°F0.1°C 77% Calm Calm -- 30.20 in1022.7 mb 0.00 in0.0 mm 0.00 in0.0 mm 0.02 in0.5 mm
12:34 PM 38.5°F3.6°C 32.5°F0.3°C 79% Calm Calm -- 30.20 in1022.7 mb 0.00 in0.0 mm 0.00 in0.0 mm 0.02 in0.5 mm
01:04 PM 37.0°F2.8°C 31.4°F-0.3°C 80% Calm Calm -- 30.20 in1022.7 mb 0.00 in0.0 mm 0.00 in0.0 mm 0.02 in0.5 mm
01:34 PM 36.9°F2.7°C 31.6°F-0.2°C 81% Calm Calm -- 30.20 in1022.7 mb 0.00 in0.0 mm 0.00 in0.0 mm 0.02 in0.5 mm
02:04 PM 35.8°F2.1°C 30.5°F-0.8°C 81% Calm Calm -- 30.20 in1022.7 mb 0.00 in0.0 mm 0.00 in0.0 mm 0.02 in0.5 mm
02:34 PM 34.9°F1.6°C 29.6°F-1.3°C 81% Calm Calm -- 30.20 in1022.7 mb 0.00 in0.0 mm 0.00 in0.0 mm 0.02 in0.5 mm
03:04 PM 35.2°F1.8°C 30.6°F-0.8°C 83% Calm Calm -- 30.20 in1022.7 mb 0.00 in0.0 mm 0.00 in0.0 mm 0.02 in0.5 mm
03:34 PM 34.9°F1.6°C 30.2°F-1.0°C 83% Calm Calm -- 30.21 in1023.0 mb 0.00 in0.0 mm 0.00 in0.0 mm 0.02 in0.5 mm
04:04 PM 35.2°F1.8°C 30.9°F-0.6°C 84% Calm Calm -- 30.20 in1022.7 mb 0.00 in0.0 mm 0.00 in0.0 mm 0.02 in0.5 mm
04:34 PM 35.6°F2.0°C 31.2°F-0.4°C 84% Calm Calm -- 30.20 in1022.7 mb 0.00 in0.0 mm 0.00 in0.0 mm 0.02 in0.5 mm
05:04 PM 39.4°F4.1°C 34.9°F1.6°C 84% Calm Calm -- 30.20 in1022.7 mb 0.00 in0.0 mm 0.00 in0.0 mm 0.02 in0.5 mm
05:34 PM 46.8°F8.2°C 37.9°F3.3°C 71% Calm Calm -- 30.20 in1022.7 mb 0.00 in0.0 mm 0.00 in0.0 mm 0.02 in0.5 mm
06:04 PM 54.9°F12.7°C 39.5°F4.2°C 56% Calm Calm -- 30.20 in1022.7 mb 0.00 in0.0 mm 0.00 in0.0 mm 0.02 in0.5 mm
06:34 PM 58.3°F14.6°C 40.2°F4.6°C 51% Calm Calm -- 30.19 in1022.4 mb 0.00 in0.0 mm 0.00 in0.0 mm 0.02 in0.5 mm
07:04 PM 61.9°F16.6°C 42.0°F5.6°C 48% Calm Calm -- 30.18 in1022.0 mb 0.00 in0.0 mm 0.00 in0.0 mm 0.02 in0.5 mm
07:34 PM 64.8°F18.2°C 39.9°F4.4°C 40% Calm Calm -- 30.17 in1021.7 mb 0.00 in0.0 mm 0.00 in0.0 mm 0.02 in0.5 mm
08:04 PM 66.9°F19.4°C 41.8°F5.4°C 40% Calm Calm -- 30.18 in1022.0 mb 0.00 in0.0 mm 0.00 in0.0 mm 0.02 in0.5 mm
08:34 PM 66.0°F18.9°C 37.6°F3.1°C 35% 0.7 mph NW1.1 kmh NW 0.7 mph1.1 kmh 30.17 in1021.7 mb 0.00 in0.0 mm 0.00 in0.0 mm 0.02 in0.5 mm
09:04 PM 67.5°F19.7°C 39.6°F4.2°C 36% Calm Calm -- 30.17 in1021.7 mb 0.00 in0.0 mm 0.00 in0.0 mm 0.02 in0.5 mm
09:34 PM 67.8°F19.9°C 39.2°F4.0°C 35% Calm Calm -- 30.16 in1021.3 mb 0.00 in0.0 mm 0.00 in0.0 mm 0.02 in0.5 mm
10:04 PM 66.6°F19.2°C 40.8°F4.9°C 39% Calm Calm -- 30.15 in1021.0 mb 0.00 in0.0 mm 0.00 in0.0 mm 0.02 in0.5 mm
10:34 PM 64.8°F18.2°C 40.5°F4.7°C 41% 4.5 mph S7.2 kmh S 4.5 mph7.2 kmh 30.15 in1021.0 mb 0.00 in0.0 mm 0.00 in0.0 mm 0.02 in0.5 mm
11:04 PM 64.8°F18.2°C 40.5°F4.7°C 41% Calm Calm -- 30.14 in1020.7 mb 0.00 in0.0 mm 0.00 in0.0 mm 0.02 in0.5 mm
11:34 PM 64.8°F18.2°C 39.9°F4.4°C 40% 6.9 mph SW11.1 kmh SW 6.9 mph11.1 kmh 30.14 in1020.7 mb 0.00 in0.0 mm 0.00 in0.0 mm 0.02 in0.5 mm